Terminal Aerodrome Forecast
Issued by NWS

Home | Current Version | Previous Version | Text Only | Print | Product List | Glossary On
Versions: 1 2 3 4 5 6 7 8 9 10 11 12 13 14 15
000
FTUS43 KDTX 261429 AAA
TAFMBS
TAF AMD
KMBS 261429Z 2614/2712 21014KT P6SM BKN045 BKN250
      TEMPO 2614/2616 BKN022
     FM261900 23010KT P6SM BKN060
      TEMPO 2621/2624 2SM TSRA OVC030CB
     FM270100 18005KT P6SM SCT060 BKN120
     FM271000 20005KT 3SM BR SCT120 BKN250=

USA.gov is the U.S. government's official web portal to all federal, state and local government web resources and services.